createdAt,value
2023-03-31T00:06:48.176Z,100.00
2023-03-31T00:18:48.586Z,100.00
2023-03-31T00:30:51.882Z,100.00
2023-03-31T00:42:49.557Z,100.00
2023-03-31T00:54:52.780Z,100.00
2023-03-31T01:06:50.473Z,100.00
2023-03-31T01:18:50.948Z,100.00
2023-03-31T01:30:51.367Z,100.00
2023-03-31T01:42:51.817Z,100.00
2023-03-31T01:54:52.283Z,100.00
2023-03-31T02:06:52.714Z,100.00
2023-03-31T02:18:53.195Z,100.00
2023-03-31T02:30:53.577Z,100.00
2023-03-31T02:42:54.054Z,100.00
2023-03-31T02:54:57.320Z,100.00
2023-03-31T03:06:54.969Z,100.00
2023-03-31T03:18:55.421Z,100.00
2023-03-31T03:30:55.906Z,100.00
2023-03-31T03:42:56.325Z,100.00
2023-03-31T03:54:56.803Z,100.00
2023-03-31T04:06:57.322Z,100.00
2023-03-31T04:18:57.716Z,100.00
2023-03-31T04:30:58.135Z,100.00
2023-03-31T04:42:58.597Z,100.00
2023-03-31T04:54:59.067Z,100.00
2023-03-31T05:06:59.484Z,100.00
2023-03-31T05:19:00.032Z,100.00
2023-03-31T05:31:00.425Z,100.00
2023-03-31T05:43:00.854Z,100.00
2023-03-31T05:55:01.396Z,100.00
2023-03-31T06:07:01.817Z,100.00
2023-03-31T06:19:02.250Z,100.00
2023-03-31T06:31:02.809Z,100.00
2023-03-31T06:43:03.120Z,100.00
2023-03-31T06:55:03.587Z,100.00
2023-03-31T07:07:04.045Z,100.00
2023-03-31T07:19:04.471Z,96.15
2023-03-31T07:31:05.229Z,84.88
2023-03-31T07:43:05.386Z,80.37
2023-03-31T07:55:05.909Z,78.29
2023-03-31T08:07:06.301Z,81.65
2023-03-31T08:19:06.756Z,75.87
2023-03-31T08:31:07.278Z,74.44
2023-03-31T08:43:07.680Z,69.89
2023-03-31T08:55:08.150Z,67.07
2023-03-31T09:07:08.572Z,62.22
2023-03-31T09:19:09.032Z,66.02
2023-03-31T09:31:09.528Z,59.08
2023-03-31T09:43:09.959Z,64.46
2023-03-31T09:55:10.373Z,64.29
2023-03-31T10:07:10.837Z,62.29
2023-03-31T10:19:11.291Z,58.13
2023-03-31T10:31:11.747Z,55.56
2023-03-31T10:43:12.190Z,54.53
2023-03-31T10:55:12.639Z,52.86
2023-03-31T11:07:13.110Z,57.24
2023-03-31T11:19:13.524Z,59.49
2023-03-31T11:31:13.985Z,62.36
2023-03-31T11:43:14.432Z,62.83
2023-03-31T11:55:14.927Z,63.79
2023-03-31T12:07:15.347Z,58.40
2023-03-31T12:19:15.873Z,56.29
2023-03-31T12:31:16.377Z,54.08
2023-03-31T12:43:16.908Z,56.02
2023-03-31T12:55:17.155Z,52.11
2023-03-31T13:07:28.392Z,52.88
2023-03-31T13:19:18.076Z,52.63
2023-03-31T13:31:18.601Z,51.12
2023-03-31T13:43:19.011Z,49.95
2023-03-31T13:55:19.452Z,47.04
2023-03-31T14:07:19.879Z,46.96
2023-03-31T14:31:20.885Z,44.74
2023-03-31T14:43:21.263Z,48.68
2023-03-31T14:55:22.583Z,49.08
2023-03-31T15:07:22.230Z,50.14
2023-03-31T15:19:22.628Z,51.06
2023-03-31T15:31:23.164Z,54.96
2023-03-31T15:43:25.797Z,65.09
2023-03-31T15:55:24.014Z,68.97
2023-03-31T16:07:24.457Z,72.39
2023-03-31T16:19:24.897Z,74.72
2023-03-31T16:25:26.636Z,80.92
2023-03-31T16:31:24.985Z,87.22
2023-03-31T16:43:25.376Z,91.13
2023-03-31T16:55:25.865Z,98.47
2023-03-31T17:07:26.298Z,99.45
2023-03-31T17:13:26.476Z,100.00
2023-03-31T17:19:26.332Z,99.95
2023-03-31T17:31:26.734Z,99.90
2023-03-31T17:43:27.180Z,96.75
2023-03-31T17:55:27.790Z,94.31
2023-03-31T18:07:28.084Z,95.14
2023-03-31T18:13:28.072Z,94.17
2023-03-31T18:19:28.072Z,94.37
2023-03-31T18:31:28.703Z,98.45
2023-03-31T18:37:28.559Z,100.00
2023-03-31T18:43:28.854Z,100.00
2023-03-31T18:55:29.378Z,100.00
2023-03-31T19:07:29.531Z,100.00
2023-03-31T19:19:29.904Z,100.00
2023-03-31T19:31:30.359Z,100.00
2023-03-31T19:43:31.027Z,100.00
2023-03-31T19:55:31.475Z,100.00
2023-03-31T20:07:31.727Z,100.00
2023-03-31T20:19:32.165Z,100.00
2023-03-31T20:31:32.666Z,100.00
2023-03-31T20:43:33.100Z,100.00
2023-03-31T20:55:33.779Z,100.00
2023-03-31T21:07:33.985Z,100.00
2023-03-31T21:19:34.437Z,100.00
2023-03-31T21:31:35.012Z,100.00
2023-03-31T21:43:35.364Z,100.00
2023-03-31T21:55:35.814Z,100.00
2023-03-31T22:07:36.225Z,100.00
2023-03-31T22:19:36.706Z,100.00
2023-03-31T22:31:37.205Z,100.00
2023-03-31T22:43:37.612Z,100.00
2023-03-31T22:55:38.062Z,98.42
2023-03-31T23:07:38.585Z,98.88
2023-03-31T23:19:41.195Z,100.00
2023-03-31T23:31:39.635Z,100.00
2023-03-31T23:43:42.161Z,100.00
2023-03-31T23:55:40.359Z,100.00
